createdAt,value
2024-02-20T00:01:25.993Z,102.80
2024-02-20T00:06:20.486Z,105.18
2024-02-20T00:11:14.738Z,109.63
2024-02-20T00:16:08.451Z,119.28
2024-02-20T00:21:02.473Z,113.93
2024-02-20T00:25:57.006Z,112.57
2024-02-20T00:30:52.611Z,119.57
2024-02-20T00:35:46.390Z,123.75
2024-02-20T00:40:41.798Z,126.97
2024-02-20T00:45:36.390Z,120.95
2024-02-20T00:50:30.541Z,120.25
2024-02-20T00:55:25.009Z,124.40
2024-02-20T01:00:19.620Z,124.82
2024-02-20T01:05:14.056Z,114.47
2024-02-20T01:10:09.062Z,117.20
2024-02-20T01:15:03.845Z,106.95
2024-02-20T01:19:58.498Z,112.82
2024-02-20T01:24:51.925Z,125.60
2024-02-20T01:29:48.307Z,118.90
2024-02-20T01:34:42.821Z,110.25
2024-02-20T01:39:37.434Z,119.47
2024-02-20T01:44:33.989Z,108.53
2024-02-20T01:49:28.904Z,104.82
2024-02-20T01:54:24.048Z,108.72
2024-02-20T01:59:18.518Z,111.03
2024-02-20T02:04:12.505Z,120.93
2024-02-20T02:09:06.533Z,123.10
2024-02-20T02:14:00.661Z,107.25
2024-02-20T02:18:54.663Z,121.70
2024-02-20T02:23:47.579Z,124.22
2024-02-20T02:28:41.989Z,131.32
2024-02-20T02:33:36.064Z,133.98
2024-02-20T02:38:30.404Z,127.53
2024-02-20T02:43:24.608Z,117.13
2024-02-20T02:48:18.691Z,122.72
2024-02-20T02:53:12.926Z,125.72
2024-02-20T02:58:07.974Z,124.38
2024-02-20T03:03:01.543Z,115.85
2024-02-20T03:07:56.284Z,121.20
2024-02-20T03:12:50.815Z,117.63
2024-02-20T03:17:47.771Z,106.70
2024-02-20T03:22:42.419Z,112.63
2024-02-20T03:27:38.290Z,109.57
2024-02-20T03:32:33.109Z,108.97
2024-02-20T03:37:27.627Z,103.03
2024-02-20T03:42:21.222Z,114.60
2024-02-20T03:47:15.705Z,120.93
2024-02-20T03:52:09.899Z,115.47
2024-02-20T03:57:05.314Z,115.05
2024-02-20T04:01:59.323Z,106.85
2024-02-20T04:06:55.014Z,110.22
2024-02-20T04:11:49.220Z,114.78
2024-02-20T04:16:42.741Z,115.50
2024-02-20T04:21:37.400Z,101.97
2024-02-20T04:26:31.549Z,102.50
2024-02-20T04:31:25.905Z,116.82
2024-02-20T04:36:21.587Z,110.68
2024-02-20T04:41:26.598Z,116.40
2024-02-20T04:46:21.121Z,116.88
2024-02-20T04:51:16.485Z,123.05
2024-02-20T04:56:10.857Z,121.93
2024-02-20T05:01:05.529Z,119.78
2024-02-20T05:06:00.196Z,125.93
2024-02-20T05:10:53.692Z,97.97
2024-02-20T05:15:48.141Z,114.20
2024-02-20T05:20:42.557Z,115.40
2024-02-20T05:25:37.109Z,112.80
2024-02-20T05:30:30.503Z,101.65
2024-02-20T05:35:24.515Z,115.50
2024-02-20T05:40:18.377Z,190.55
2024-02-20T05:45:13.676Z,102.80
2024-02-20T05:50:09.533Z,117.72
2024-02-20T05:55:03.342Z,128.55
2024-02-20T05:59:58.287Z,114.97
2024-02-20T06:04:52.274Z,111.18
2024-02-20T06:09:46.291Z,108.80
2024-02-20T06:14:50.722Z,98.53
2024-02-20T06:19:46.271Z,107.65
2024-02-20T06:24:40.464Z,114.75
2024-02-20T06:29:34.295Z,149.57
2024-02-20T06:34:28.467Z,111.82
2024-02-20T06:39:24.050Z,109.60
2024-02-20T06:44:18.088Z,107.85
2024-02-20T06:49:12.480Z,102.07
2024-02-20T06:54:07.258Z,114.88
2024-02-20T06:59:01.318Z,109.50
2024-02-20T07:03:56.067Z,131.82
2024-02-20T07:08:50.570Z,105.57
2024-02-20T07:13:45.923Z,106.97
2024-02-20T07:18:39.937Z,84.57
2024-02-20T07:23:33.456Z,109.38
2024-02-20T07:28:28.043Z,107.10
2024-02-20T07:33:31.079Z,108.93
2024-02-20T07:38:31.274Z,104.43
2024-02-20T07:43:25.872Z,102.28
2024-02-20T07:48:20.231Z,106.97
2024-02-20T07:53:14.648Z,113.38
2024-02-20T07:58:09.067Z,108.78
2024-02-20T08:03:03.646Z,100.82
2024-02-20T08:07:57.299Z,102.47
2024-02-20T08:12:51.724Z,80.72
2024-02-20T08:17:46.918Z,89.38
2024-02-20T08:22:42.556Z,83.47
2024-02-20T08:27:37.308Z,80.13
2024-02-20T08:32:31.318Z,95.90
2024-02-20T08:37:25.406Z,82.43
2024-02-20T08:42:20.689Z,88.22
2024-02-20T08:47:15.286Z,74.20
2024-02-20T08:52:12.143Z,71.13
2024-02-20T08:57:06.082Z,68.95
2024-02-20T09:02:00.362Z,67.28
2024-02-20T09:06:54.482Z,66.50
2024-02-20T09:11:48.867Z,89.72
2024-02-20T09:16:43.465Z,85.53
2024-02-20T09:21:37.619Z,87.78
2024-02-20T09:26:32.813Z,90.22
2024-02-20T09:31:25.810Z,93.22
2024-02-20T09:36:18.990Z,92.60
2024-02-20T09:41:12.788Z,88.93
2024-02-20T09:46:09.583Z,90.88
2024-02-20T09:51:04.949Z,83.95
2024-02-20T09:55:59.366Z,79.75
2024-02-20T10:00:57.794Z,79.88
2024-02-20T10:05:54.884Z,74.28
2024-02-20T10:10:48.977Z,82.82
2024-02-20T10:15:42.872Z,78.15
2024-02-20T10:20:37.141Z,79.20
2024-02-20T10:25:31.766Z,79.65
2024-02-20T10:30:29.346Z,86.72
2024-02-20T10:35:25.290Z,86.88
2024-02-20T10:40:27.655Z,83.13
2024-02-20T10:45:27.057Z,89.70
2024-02-20T10:50:24.639Z,86.47
2024-02-20T10:55:27.628Z,79.18
2024-02-20T11:00:26.950Z,82.07
2024-02-20T11:05:21.089Z,72.68
2024-02-20T11:10:25.837Z,66.47
2024-02-20T11:15:28.427Z,67.22
2024-02-20T11:20:25.530Z,65.47
2024-02-20T11:25:25.244Z,66.37
2024-02-20T11:30:21.022Z,68.00
2024-02-20T11:35:43.357Z,67.95
2024-02-20T11:40:37.371Z,71.25
2024-02-20T11:45:31.892Z,72.72
2024-02-20T11:50:30.307Z,72.18
2024-02-20T11:55:24.028Z,71.15
2024-02-20T12:00:19.154Z,69.93
2024-02-20T12:05:22.302Z,64.15
2024-02-20T12:10:20.145Z,68.05
2024-02-20T12:20:11.660Z,63.85
2024-02-20T12:30:05.593Z,88.17
2024-02-20T12:34:59.776Z,70.15
2024-02-20T12:39:53.978Z,68.95
2024-02-20T12:44:48.720Z,71.38
2024-02-20T12:49:42.299Z,69.68
2024-02-20T12:54:36.604Z,66.95
2024-02-20T12:59:31.234Z,66.53
2024-02-20T13:04:25.361Z,69.00
2024-02-20T13:09:20.701Z,61.13
2024-02-20T13:14:14.970Z,63.50
2024-02-20T13:19:09.187Z,61.42
2024-02-20T13:24:03.615Z,68.55
2024-02-20T13:28:57.932Z,66.32
2024-02-20T13:33:52.237Z,56.38
2024-02-20T13:38:46.678Z,49.95
2024-02-20T13:43:43.118Z,47.95
2024-02-20T13:48:37.579Z,49.78
2024-02-20T13:53:31.642Z,56.05
2024-02-20T13:58:27.594Z,54.85
2024-02-20T14:03:22.069Z,50.90
2024-02-20T14:08:15.111Z,47.65
2024-02-20T14:13:10.334Z,45.70
2024-02-20T14:18:04.038Z,43.53
2024-02-20T14:22:58.748Z,47.17
2024-02-20T14:27:52.885Z,57.22
2024-02-20T14:32:48.939Z,48.72
2024-02-20T14:37:42.852Z,47.72
2024-02-20T14:42:36.903Z,49.78
2024-02-20T14:47:32.974Z,42.92
2024-02-20T14:52:27.530Z,40.08
2024-02-20T14:57:24.294Z,43.95
2024-02-20T15:02:18.423Z,43.17
2024-02-20T15:07:16.156Z,47.50
2024-02-20T15:12:20.780Z,49.05
2024-02-20T15:17:14.424Z,47.30
2024-02-20T15:22:09.141Z,48.10
2024-02-20T15:27:04.040Z,46.53
2024-02-20T15:32:01.426Z,45.40
2024-02-20T15:36:57.041Z,47.72
2024-02-20T15:41:58.317Z,43.38
2024-02-20T15:46:56.730Z,47.47
2024-02-20T15:51:50.403Z,48.58
2024-02-20T15:56:48.790Z,51.70
2024-02-20T16:06:41.805Z,48.75
2024-02-20T16:11:48.197Z,46.72
2024-02-20T16:16:55.362Z,47.63
2024-02-20T16:22:00.153Z,61.50
2024-02-20T16:27:05.022Z,49.53
2024-02-20T16:31:59.789Z,45.72
2024-02-20T16:37:00.868Z,49.10
2024-02-20T16:41:55.254Z,44.63
2024-02-20T16:46:48.989Z,59.65
2024-02-20T16:51:42.930Z,49.65
2024-02-20T16:56:37.574Z,47.72
2024-02-20T17:01:32.140Z,50.05
2024-02-20T17:06:26.696Z,56.20
2024-02-20T17:11:20.779Z,56.95
2024-02-20T17:16:14.952Z,60.35
2024-02-20T17:21:13.056Z,67.68
2024-02-20T17:26:07.488Z,61.67
2024-02-20T17:31:05.855Z,69.65
2024-02-20T17:36:02.868Z,62.65
2024-02-20T17:40:57.056Z,63.30
2024-02-20T17:45:51.589Z,76.22
2024-02-20T17:50:45.950Z,80.85
2024-02-20T17:55:39.836Z,70.35
2024-02-20T18:00:34.144Z,65.07
2024-02-20T18:05:28.648Z,63.45
2024-02-20T18:10:23.153Z,65.80
2024-02-20T18:15:16.499Z,65.50
2024-02-20T18:20:17.140Z,70.38
2024-02-20T18:25:12.250Z,76.28
2024-02-20T18:30:11.876Z,66.63
2024-02-20T18:35:07.764Z,68.75
2024-02-20T18:40:02.068Z,75.40
2024-02-20T18:44:56.756Z,68.03
2024-02-20T18:49:54.184Z,71.40
2024-02-20T18:54:51.339Z,67.38
2024-02-20T18:59:45.116Z,64.35
2024-02-20T19:04:40.171Z,66.28
2024-02-20T19:09:33.938Z,68.25
2024-02-20T19:14:28.019Z,72.28
2024-02-20T19:19:22.304Z,64.57
2024-02-20T19:24:16.786Z,70.80
2024-02-20T19:29:11.190Z,73.22
2024-02-20T19:34:04.929Z,76.82
2024-02-20T19:38:59.381Z,74.03
2024-02-20T19:43:54.832Z,79.78
2024-02-20T19:48:50.008Z,74.03
2024-02-20T19:53:44.347Z,75.47
2024-02-20T19:58:38.872Z,70.70
2024-02-20T20:03:32.726Z,78.28
2024-02-20T20:08:27.014Z,75.78
2024-02-20T20:13:20.805Z,78.45
2024-02-20T20:18:15.760Z,61.00
2024-02-20T20:23:09.378Z,57.08
2024-02-20T20:28:03.830Z,55.42
2024-02-20T20:32:57.813Z,60.53
2024-02-20T20:37:53.992Z,52.22
2024-02-20T20:42:48.560Z,52.22
2024-02-20T20:47:43.332Z,52.97
2024-02-20T20:52:36.958Z,58.38
2024-02-20T20:57:30.537Z,53.38
2024-02-20T21:02:25.009Z,50.85
2024-02-20T21:07:19.570Z,50.90
2024-02-20T21:12:13.872Z,51.10
2024-02-20T21:17:08.103Z,55.20
2024-02-20T21:22:01.552Z,58.10
2024-02-20T21:26:59.824Z,56.58
2024-02-20T21:31:53.940Z,56.17
2024-02-20T21:36:48.349Z,56.15
2024-02-20T21:41:42.331Z,62.42
2024-02-20T21:46:35.979Z,50.63
2024-02-20T21:51:30.801Z,49.33
2024-02-20T21:56:24.732Z,50.88
2024-02-20T22:01:18.941Z,50.90
2024-02-20T22:06:16.970Z,52.95
2024-02-20T22:11:11.987Z,50.33
2024-02-20T22:16:08.158Z,52.22
2024-02-20T22:21:02.627Z,49.20
2024-02-20T22:25:57.522Z,53.22
2024-02-20T22:30:52.228Z,45.90
2024-02-20T22:35:46.029Z,48.90
2024-02-20T22:40:40.264Z,43.75
2024-02-20T22:45:46.615Z,48.40
2024-02-20T22:50:40.228Z,46.08
2024-02-20T22:55:33.218Z,53.10
2024-02-20T23:00:27.474Z,50.35
2024-02-20T23:05:22.246Z,46.20
2024-02-20T23:10:16.713Z,51.63
2024-02-20T23:15:12.752Z,57.72
2024-02-20T23:20:09.935Z,59.92
2024-02-20T23:25:04.508Z,50.08
2024-02-20T23:29:58.853Z,56.30
2024-02-20T23:34:54.138Z,63.30
2024-02-20T23:39:47.987Z,64.57
2024-02-20T23:44:41.877Z,63.17
2024-02-20T23:49:36.388Z,53.88
2024-02-20T23:54:31.447Z,52.33
2024-02-20T23:59:25.959Z,52.65
